createdAt,value
2022-10-28T00:01:10.253Z,28.05
2022-10-28T00:09:06.846Z,28.00
2022-10-28T00:11:36.911Z,26.95
2022-10-28T00:17:36.641Z,27.27
2022-10-28T00:20:04.227Z,27.85
2022-10-28T00:28:02.266Z,26.35
2022-10-28T00:37:06.265Z,25.20
2022-10-28T00:42:03.866Z,25.80
2022-10-28T00:44:43.619Z,26.90
2022-10-28T00:52:06.140Z,24.98
2022-10-28T00:54:34.835Z,22.80
2022-10-28T01:18:31.246Z,24.27
2022-10-28T01:21:01.257Z,24.42
2022-10-28T01:28:41.019Z,24.42
2022-10-28T01:31:26.817Z,24.50
2022-10-28T01:43:21.768Z,22.80
2022-10-28T01:45:55.557Z,21.55
2022-10-28T02:11:33.192Z,21.92
2022-10-28T02:14:22.449Z,24.83
2022-10-28T02:21:26.786Z,24.15
2022-10-28T02:32:57.904Z,22.13
2022-10-28T02:36:08.637Z,22.92
2022-10-28T02:38:42.393Z,24.55
2022-10-28T02:46:09.914Z,23.15
2022-10-28T02:48:57.073Z,23.77
2022-10-28T02:56:09.354Z,22.40
2022-10-28T02:58:42.772Z,23.27
2022-10-28T03:05:33.697Z,21.83
2022-10-28T03:08:00.721Z,23.77
2022-10-28T03:10:27.764Z,24.50
2022-10-28T03:13:59.145Z,25.80
2022-10-28T03:16:29.061Z,21.73
2022-10-28T03:18:56.201Z,25.88
2022-10-28T03:22:18.154Z,26.30
2022-10-28T03:24:45.208Z,24.08
2022-10-28T03:27:12.315Z,25.38
2022-10-28T03:34:04.610Z,24.00
2022-10-28T03:36:31.711Z,25.92
2022-10-28T03:44:32.165Z,26.77
2022-10-28T03:46:59.224Z,24.52
2022-10-28T03:49:26.286Z,27.73
2022-10-28T04:01:50.208Z,24.85
2022-10-28T04:04:17.427Z,25.35
2022-10-28T04:06:44.446Z,24.75
2022-10-28T04:19:14.171Z,25.20
2022-10-28T04:21:41.350Z,24.02
2022-10-28T04:24:08.482Z,23.88
2022-10-28T04:26:47.622Z,24.58
2022-10-28T04:29:14.658Z,25.17
2022-10-28T04:31:41.718Z,27.25
2022-10-28T04:34:08.885Z,25.50
2022-10-28T04:36:35.922Z,25.73
2022-10-28T04:56:42.835Z,23.38
2022-10-28T04:59:09.971Z,25.02
2022-10-28T05:01:37.303Z,24.00
2022-10-28T05:07:48.997Z,23.60
2022-10-28T05:14:24.614Z,24.83
2022-10-28T05:16:51.646Z,22.77
2022-10-28T05:19:19.109Z,22.27
2022-10-28T05:35:10.529Z,21.85
2022-10-28T05:37:37.707Z,21.45
2022-10-28T05:41:18.988Z,21.17
2022-10-28T05:43:46.107Z,22.33
2022-10-28T05:46:13.189Z,20.55
2022-10-28T05:53:17.698Z,19.88
2022-10-28T05:55:47.637Z,20.17
2022-10-28T05:58:15.676Z,22.48
2022-10-28T06:00:44.843Z,21.45
2022-10-28T06:03:12.800Z,21.40
2022-10-28T06:14:34.209Z,22.63
2022-10-28T06:17:01.253Z,22.98
2022-10-28T06:19:28.406Z,22.27
2022-10-28T06:21:55.615Z,23.20
2022-10-28T06:24:22.709Z,22.75
2022-10-28T06:26:49.806Z,24.65
2022-10-28T06:29:20.157Z,24.58
2022-10-28T06:31:47.218Z,23.70
2022-10-28T06:34:14.374Z,20.10
2022-10-28T06:36:41.472Z,20.08
2022-10-28T06:39:08.828Z,21.50
2022-10-28T06:41:35.946Z,23.33
2022-10-28T06:44:04.009Z,22.75
2022-10-28T06:55:35.502Z,25.73
2022-10-28T06:58:03.280Z,24.13
2022-10-28T07:03:03.744Z,25.27
2022-10-28T07:05:58.617Z,27.50
2022-10-28T07:11:00.618Z,24.30
2022-10-28T07:13:27.745Z,23.15
2022-10-28T07:16:00.550Z,26.38
2022-10-28T07:18:29.849Z,24.67
2022-10-28T07:21:01.122Z,22.10
2022-10-28T07:23:31.656Z,26.13
2022-10-28T07:25:58.907Z,23.27
2022-10-28T07:28:26.762Z,23.65
2022-10-28T07:30:53.837Z,23.45
2022-10-28T07:33:21.364Z,23.45
2022-10-28T07:35:48.645Z,24.67
2022-10-28T07:38:15.792Z,22.02
2022-10-28T07:40:42.876Z,20.35
2022-10-28T07:43:09.949Z,19.52
2022-10-28T07:45:37.384Z,20.17
2022-10-28T07:48:05.270Z,17.17
2022-10-28T07:50:32.573Z,17.10
2022-10-28T07:53:00.673Z,17.83
2022-10-28T07:55:28.179Z,19.65
2022-10-28T07:57:55.708Z,18.83
2022-10-28T08:00:23.177Z,16.45
2022-10-28T08:02:50.374Z,16.15
2022-10-28T08:05:17.741Z,17.20
2022-10-28T08:07:45.082Z,14.07
2022-10-28T08:10:12.245Z,15.93
2022-10-28T08:12:39.380Z,17.17
2022-10-28T08:15:09.585Z,16.08
2022-10-28T08:17:37.008Z,16.35
2022-10-28T08:20:08.104Z,14.90
2022-10-28T08:22:41.323Z,15.13
2022-10-28T08:25:14.598Z,16.92
2022-10-28T08:27:43.202Z,14.93
2022-10-28T08:30:13.224Z,17.40
2022-10-28T08:32:41.014Z,14.10
2022-10-28T08:35:09.645Z,15.27
2022-10-28T08:37:36.880Z,13.82
2022-10-28T08:40:10.041Z,15.48
2022-10-28T08:42:50.710Z,14.23
2022-10-28T08:45:31.754Z,12.52
2022-10-28T08:48:12.347Z,14.70
2022-10-28T08:51:21.351Z,12.18
2022-10-28T08:54:02.815Z,13.38
2022-10-28T08:56:46.224Z,12.82
2022-10-28T08:59:29.383Z,13.70
2022-10-28T09:02:18.690Z,12.32
2022-10-28T09:04:47.583Z,13.25
2022-10-28T09:07:24.688Z,11.95
2022-10-28T09:09:53.564Z,9.90
2022-10-28T09:12:39.361Z,9.98
2022-10-28T09:18:23.721Z,9.88
2022-10-28T09:20:54.988Z,8.93
2022-10-28T09:23:32.410Z,8.70
2022-10-28T09:26:31.678Z,8.70
2022-10-28T09:31:44.796Z,7.78
2022-10-28T09:34:14.400Z,8.20
2022-10-28T09:36:48.022Z,6.68
2022-10-28T09:39:25.386Z,7.35
2022-10-28T09:41:57.664Z,6.82
2022-10-28T09:44:54.955Z,7.43
2022-10-28T09:47:30.705Z,6.90
2022-10-28T09:50:27.186Z,6.43
2022-10-28T09:53:00.193Z,6.53
2022-10-28T09:55:27.369Z,6.53
2022-10-28T09:57:54.690Z,6.78
2022-10-28T10:00:22.293Z,7.13
2022-10-28T10:02:55.260Z,6.75
2022-10-28T10:05:22.579Z,5.90
2022-10-28T10:07:58.668Z,5.50
2022-10-28T10:10:36.299Z,5.57
2022-10-28T10:13:07.071Z,5.95
2022-10-28T10:15:40.449Z,5.18
2022-10-28T10:18:12.552Z,5.38
2022-10-28T10:20:53.296Z,6.75
2022-10-28T10:23:29.499Z,6.32
2022-10-28T10:26:25.139Z,5.50
2022-10-28T10:28:53.127Z,5.75
2022-10-28T10:31:26.817Z,5.40
2022-10-28T10:34:01.241Z,4.55
2022-10-28T10:37:20.192Z,4.60
2022-10-28T10:40:11.670Z,4.32
2022-10-28T10:42:46.783Z,4.32
2022-10-28T10:45:27.646Z,4.18
2022-10-28T10:48:15.332Z,5.05
2022-10-28T10:50:46.281Z,4.40
2022-10-28T10:53:21.268Z,4.18
2022-10-28T10:56:33.420Z,4.10
2022-10-28T10:59:05.629Z,4.82
2022-10-28T11:01:38.585Z,3.92
2022-10-28T11:04:17.244Z,4.10
2022-10-28T11:06:49.505Z,4.28
2022-10-28T11:09:30.216Z,4.20
2022-10-28T11:11:57.699Z,4.25
2022-10-28T11:14:30.349Z,4.15
2022-10-28T11:17:03.070Z,3.75
2022-10-28T11:19:35.923Z,3.85
2022-10-28T11:22:18.178Z,3.30
2022-10-28T11:24:55.608Z,3.72
2022-10-28T11:27:34.809Z,3.50
2022-10-28T11:30:03.043Z,2.97
2022-10-28T11:33:01.765Z,2.95
2022-10-28T11:35:43.307Z,2.92
2022-10-28T11:38:21.357Z,2.67
2022-10-28T11:41:12.193Z,2.80
2022-10-28T11:43:55.266Z,2.72
2022-10-28T11:47:00.929Z,2.78
2022-10-28T11:49:59.133Z,3.10
2022-10-28T11:52:39.971Z,3.30
2022-10-28T11:55:27.491Z,2.92
2022-10-28T11:58:04.866Z,2.70
2022-10-28T12:01:14.012Z,2.83
2022-10-28T12:04:06.137Z,2.60
2022-10-28T12:06:54.348Z,2.88
2022-10-28T12:10:13.202Z,2.17
2022-10-28T12:13:01.198Z,2.92
2022-10-28T12:15:44.906Z,2.97
2022-10-28T12:18:26.223Z,3.33
2022-10-28T12:21:02.479Z,2.90
2022-10-28T12:23:33.592Z,2.92
2022-10-28T12:26:01.989Z,2.80
2022-10-28T12:28:36.289Z,2.90
2022-10-28T12:31:06.935Z,2.65
2022-10-28T12:33:41.049Z,3.10
2022-10-28T12:36:08.252Z,2.70
2022-10-28T12:38:57.697Z,2.97
2022-10-28T12:41:54.498Z,3.30
2022-10-28T12:44:23.907Z,3.03
2022-10-28T12:47:08.268Z,2.45
2022-10-28T12:52:32.953Z,2.97
2022-10-28T12:57:59.202Z,2.75
2022-10-28T13:00:42.186Z,2.60
2022-10-28T13:03:13.639Z,3.45
2022-10-28T13:05:43.608Z,2.53
2022-10-28T13:08:41.872Z,2.20
2022-10-28T13:11:21.170Z,3.10
2022-10-28T13:14:11.404Z,2.90
2022-10-28T13:17:15.632Z,3.13
2022-10-28T13:19:58.425Z,2.70
2022-10-28T13:22:53.833Z,3.03
2022-10-28T13:26:11.730Z,2.50
2022-10-28T13:28:47.376Z,3.10
2022-10-28T13:31:21.245Z,2.65
2022-10-28T13:34:00.645Z,2.08
2022-10-28T13:36:41.270Z,2.72
2022-10-28T13:39:33.692Z,2.80
2022-10-28T13:42:31.548Z,2.50
2022-10-28T13:45:04.928Z,3.35
2022-10-28T13:47:36.848Z,2.95
2022-10-28T13:50:07.594Z,2.75
2022-10-28T13:53:35.911Z,2.75
2022-10-28T13:56:11.875Z,2.85
2022-10-28T13:58:39.071Z,2.78
2022-10-28T14:01:43.798Z,3.00
2022-10-28T14:04:24.155Z,3.17
2022-10-28T14:07:01.636Z,2.92
2022-10-28T14:09:35.095Z,2.97
2022-10-28T14:12:13.177Z,2.72
2022-10-28T14:14:56.636Z,3.00
2022-10-28T14:17:30.339Z,3.03
2022-10-28T14:19:58.027Z,3.70
2022-10-28T14:22:31.142Z,3.40
2022-10-28T14:24:59.504Z,2.87
2022-10-28T14:27:39.956Z,3.42
2022-10-28T14:30:16.061Z,3.30
2022-10-28T14:32:47.110Z,3.38
2022-10-28T14:35:48.005Z,3.88
2022-10-28T14:38:47.154Z,3.35
2022-10-28T14:41:38.415Z,3.83
2022-10-28T14:44:30.512Z,3.38
2022-10-28T14:47:30.231Z,2.88
2022-10-28T14:50:15.464Z,3.53
2022-10-28T14:52:50.196Z,3.55
2022-10-28T14:55:24.910Z,3.47
2022-10-28T14:57:52.520Z,4.00
2022-10-28T15:00:23.508Z,3.30
2022-10-28T15:02:54.749Z,3.60
2022-10-28T15:05:25.991Z,3.40
2022-10-28T15:07:54.065Z,4.10
2022-10-28T15:10:31.007Z,3.88
2022-10-28T15:12:59.008Z,4.05
2022-10-28T15:15:31.503Z,5.15
2022-10-28T15:18:25.640Z,4.32
2022-10-28T15:21:15.725Z,5.28
2022-10-28T15:23:46.191Z,5.25
2022-10-28T15:26:16.906Z,5.80
2022-10-28T15:28:45.314Z,6.45
2022-10-28T15:31:12.341Z,6.70
2022-10-28T15:33:41.719Z,6.68
2022-10-28T15:36:24.583Z,6.65
2022-10-28T15:39:17.109Z,7.57
2022-10-28T15:41:51.110Z,6.95
2022-10-28T15:52:53.684Z,7.35
2022-10-28T15:56:06.959Z,7.05
2022-10-28T15:58:38.152Z,8.30
2022-10-28T16:01:30.745Z,7.75
2022-10-28T16:03:58.246Z,7.60
2022-10-28T16:06:32.129Z,7.45
2022-10-28T16:09:14.379Z,7.60
2022-10-28T16:11:49.046Z,8.40
2022-10-28T16:14:37.532Z,6.75
2022-10-28T16:17:23.245Z,7.75
2022-10-28T16:20:15.323Z,6.72
2022-10-28T16:27:41.894Z,6.45
2022-10-28T16:30:09.961Z,7.00
2022-10-28T16:32:39.765Z,5.47
2022-10-28T16:35:24.464Z,5.80
2022-10-28T17:19:42.527Z,6.95
2022-10-28T17:22:10.661Z,7.65
2022-10-28T17:24:38.687Z,7.05
2022-10-28T17:28:17.588Z,7.63
2022-10-28T17:30:44.698Z,7.28
2022-10-28T17:33:11.744Z,7.60
2022-10-28T17:35:38.835Z,7.85
2022-10-28T17:38:05.880Z,8.05
2022-10-28T17:40:36.139Z,8.20
2022-10-28T17:43:03.241Z,7.80
2022-10-28T17:45:30.256Z,8.57
2022-10-28T17:56:53.026Z,8.25
2022-10-28T17:59:20.077Z,8.52
2022-10-28T18:01:47.389Z,8.55
2022-10-28T18:04:49.155Z,9.70
2022-10-28T18:07:16.450Z,10.20
2022-10-28T18:09:43.564Z,9.63
2022-10-28T18:12:12.642Z,9.88
2022-10-28T18:14:40.266Z,10.52
2022-10-28T18:17:07.385Z,9.45
2022-10-28T18:20:32.674Z,10.30
2022-10-28T18:23:00.179Z,10.00
2022-10-28T18:25:27.281Z,9.57
2022-10-28T18:27:54.284Z,10.35
2022-10-28T18:30:21.348Z,9.48
2022-10-28T18:37:16.167Z,8.73
2022-10-28T18:39:43.224Z,8.15
2022-10-28T18:47:53.841Z,9.38
2022-10-28T18:50:21.195Z,9.50
2022-10-28T18:52:48.300Z,9.05
2022-10-28T18:55:18.162Z,9.57
2022-10-28T18:57:45.240Z,8.93
2022-10-28T19:00:17.892Z,9.50
2022-10-28T19:02:47.792Z,10.82
2022-10-28T19:06:06.600Z,9.77
2022-10-28T19:08:34.024Z,10.30
2022-10-28T19:11:02.085Z,10.38
2022-10-28T19:17:32.263Z,10.70
2022-10-28T19:19:59.342Z,10.18
2022-10-28T19:23:34.610Z,9.60
2022-10-28T19:26:01.865Z,9.73
2022-10-28T19:28:28.958Z,9.68
2022-10-28T19:31:16.023Z,10.82
2022-10-28T19:33:44.601Z,9.52
2022-10-28T19:36:18.944Z,9.25
2022-10-28T19:38:47.979Z,10.70
2022-10-28T19:45:54.157Z,11.68
2022-10-28T19:48:21.235Z,11.57
2022-10-28T19:50:51.424Z,12.05
2022-10-28T19:53:47.392Z,11.80
2022-10-28T20:04:12.571Z,12.88
2022-10-28T20:06:40.810Z,12.32
2022-10-28T20:09:08.101Z,12.52
2022-10-28T20:17:00.308Z,12.88
2022-10-28T20:19:29.783Z,14.15
2022-10-28T20:25:12.560Z,13.13
2022-10-28T20:27:39.704Z,12.27
2022-10-28T20:30:07.450Z,11.57
2022-10-28T20:32:36.447Z,14.02
2022-10-28T20:35:03.488Z,10.88
2022-10-28T20:37:30.627Z,11.82
2022-10-28T20:40:22.844Z,10.93
2022-10-28T20:42:49.931Z,11.93
2022-10-28T20:45:16.970Z,11.90
2022-10-28T20:52:43.842Z,12.55
2022-10-28T20:55:10.925Z,11.43
2022-10-28T20:57:37.989Z,11.77
2022-10-28T21:00:12.571Z,12.57
2022-10-28T21:02:40.735Z,11.75
2022-10-28T21:05:08.547Z,12.50
2022-10-28T21:07:36.112Z,11.73
2022-10-28T21:10:03.236Z,12.10
2022-10-28T21:13:07.749Z,12.23
2022-10-28T21:15:37.231Z,11.48
2022-10-28T21:18:05.591Z,12.63
2022-10-28T21:20:49.095Z,11.77
2022-10-28T21:23:16.102Z,12.23
2022-10-28T21:25:43.151Z,11.70
2022-10-28T21:29:26.441Z,12.63
2022-10-28T21:31:53.600Z,12.38
2022-10-28T21:34:20.682Z,12.43
2022-10-28T21:36:47.723Z,12.40
2022-10-28T21:39:14.819Z,11.75
2022-10-28T21:46:20.410Z,12.48
2022-10-28T21:48:47.686Z,12.18
2022-10-28T21:51:41.320Z,12.55
2022-10-28T21:54:08.625Z,12.15
2022-10-28T21:56:37.660Z,11.82
2022-10-28T21:59:04.801Z,12.07
2022-10-28T22:01:33.082Z,11.25
2022-10-28T22:05:06.356Z,13.43
2022-10-28T22:07:33.432Z,12.88
2022-10-28T22:10:00.468Z,12.23
2022-10-28T22:13:24.885Z,12.57
2022-10-28T22:15:59.898Z,12.40
2022-10-28T22:19:32.439Z,13.48
2022-10-28T22:21:59.600Z,12.32
2022-10-28T22:24:26.618Z,12.77
2022-10-28T22:32:26.470Z,13.80
2022-10-28T22:34:53.599Z,13.77
2022-10-28T22:37:20.675Z,13.60
2022-10-28T22:39:47.717Z,12.18
2022-10-28T22:42:14.745Z,12.73
2022-10-28T22:44:56.053Z,12.43
2022-10-28T22:47:23.159Z,12.15
2022-10-28T22:49:50.242Z,11.90
2022-10-28T22:53:41.342Z,11.85
2022-10-28T22:56:13.217Z,12.00
2022-10-28T23:02:31.607Z,12.98
2022-10-28T23:04:58.694Z,12.93
2022-10-28T23:07:25.780Z,12.27
2022-10-28T23:13:56.381Z,12.27
2022-10-28T23:16:24.254Z,12.20
2022-10-28T23:19:42.324Z,12.45
2022-10-28T23:22:09.427Z,11.45
2022-10-28T23:24:36.438Z,11.65
2022-10-28T23:27:30.579Z,11.93
2022-10-28T23:29:57.629Z,12.07
2022-10-28T23:32:25.508Z,12.65
2022-10-28T23:35:08.456Z,12.75
2022-10-28T23:37:35.662Z,14.07
2022-10-28T23:40:02.806Z,13.32
2022-10-28T23:43:37.323Z,13.35
2022-10-28T23:46:05.001Z,12.10
2022-10-28T23:48:32.360Z,13.40
2022-10-28T23:50:59.522Z,13.43
2022-10-28T23:56:14.924Z,12.55
2022-10-28T23:58:41.975Z,12.30
